createdAt,value
2022-10-06T00:04:27.360Z,7.46
2022-10-06T00:09:47.081Z,7.36
2022-10-06T00:15:04.677Z,7.36
2022-10-06T00:20:21.973Z,7.46
2022-10-06T00:24:48.618Z,7.46
2022-10-06T00:29:15.399Z,7.54
2022-10-06T00:34:32.846Z,7.54
2022-10-06T00:39:48.998Z,7.45
2022-10-06T00:45:04.841Z,7.45
2022-10-06T00:50:21.401Z,7.51
2022-10-06T00:55:37.472Z,7.51
2022-10-06T01:00:56.281Z,7.78
2022-10-06T01:06:12.516Z,7.78
2022-10-06T01:11:30.447Z,7.69
2022-10-06T01:16:48.149Z,7.69
2022-10-06T01:21:16.055Z,7.61
2022-10-06T01:25:52.206Z,7.61
2022-10-06T01:31:02.364Z,7.28
2022-10-06T01:36:11.719Z,7.28
2022-10-06T01:41:19.577Z,7.68
2022-10-06T01:46:28.405Z,7.68
2022-10-06T01:51:37.167Z,7.42
2022-10-06T01:56:46.275Z,7.42
2022-10-06T02:01:55.315Z,7.61
2022-10-06T02:07:04.513Z,7.61
2022-10-06T02:12:14.317Z,7.61
2022-10-06T02:17:22.805Z,7.61
2022-10-06T02:22:32.520Z,7.71
2022-10-06T02:27:41.028Z,7.71
2022-10-06T02:32:51.402Z,7.59
2022-10-06T02:38:01.926Z,7.65
2022-10-06T02:43:10.911Z,7.65
2022-10-06T02:48:27.253Z,7.82
2022-10-06T02:53:43.237Z,7.82
2022-10-06T02:58:59.241Z,7.88
2022-10-06T03:04:15.561Z,7.88
2022-10-06T03:09:31.562Z,7.65
2022-10-06T03:14:48.364Z,7.65
2022-10-06T03:20:05.794Z,7.64
2022-10-06T03:25:22.751Z,7.64
2022-10-06T03:30:39.558Z,7.57
2022-10-06T03:41:11.735Z,7.62
2022-10-06T03:51:44.849Z,7.81
2022-10-06T04:02:19.987Z,7.9
2022-10-06T04:07:37.158Z,7.9
2022-10-06T04:12:53.868Z,7.83
2022-10-06T04:18:10.351Z,7.83
2022-10-06T04:22:07.241Z,7.7
2022-10-06T04:27:25.857Z,7.7
2022-10-06T04:32:37.152Z,7.82
2022-10-06T04:37:51.927Z,7.82
2022-10-06T04:43:06.778Z,7.65
2022-10-06T04:48:23.109Z,7.65
2022-10-06T04:52:49.129Z,7.71
2022-10-06T04:57:19.554Z,7.71
2022-10-06T05:02:29.215Z,7.53
2022-10-06T05:07:37.184Z,7.53
2022-10-06T05:12:45.627Z,7.83
2022-10-06T05:17:54.764Z,7.83
2022-10-06T05:23:04.495Z,7.68
2022-10-06T05:28:15.320Z,7.68
2022-10-06T05:33:24.150Z,7.88
2022-10-06T05:38:33.342Z,7.88
2022-10-06T05:43:41.682Z,8.01
2022-10-06T05:48:50.150Z,8.21
2022-10-06T05:53:59.973Z,8.21
2022-10-06T05:59:11.870Z,8.09
2022-10-06T06:04:30.091Z,8.09
2022-10-06T06:09:46.772Z,8.28
2022-10-06T06:15:03.085Z,8.28
2022-10-06T06:20:20.450Z,7.85
2022-10-06T06:25:37.156Z,7.85
2022-10-06T06:30:53.644Z,8.16
2022-10-06T06:36:10.918Z,8.16
2022-10-06T06:41:26.923Z,8.14
2022-10-06T06:52:00.043Z,7.92
2022-10-06T06:56:26.708Z,7.92
2022-10-06T07:01:03.268Z,8.41
2022-10-06T07:06:09.573Z,8.41
2022-10-06T07:11:17.948Z,8.01
2022-10-06T07:16:28.519Z,8.01
2022-10-06T07:21:38.774Z,7.82
2022-10-06T07:26:48.521Z,7.82
2022-10-06T07:32:02.023Z,8.16
2022-10-06T07:37:09.312Z,8.16
2022-10-06T07:42:18.460Z,8.25
2022-10-06T07:47:28.196Z,8.25
2022-10-06T07:52:37.987Z,8.41
2022-10-06T07:57:46.435Z,8.41
2022-10-06T08:02:56.655Z,8.09
2022-10-06T08:08:13.348Z,8.09
2022-10-06T08:13:28.859Z,8.16
2022-10-06T08:18:47.594Z,8.16
2022-10-06T08:24:00.537Z,7.97
2022-10-06T08:29:20.110Z,7.97
2022-10-06T08:34:31.597Z,8.04
2022-10-06T08:39:48.376Z,8.04
2022-10-06T08:45:04.618Z,8.1
2022-10-06T08:50:20.117Z,7.92
2022-10-06T08:55:34.957Z,7.92
2022-10-06T09:00:51.129Z,8.09
2022-10-06T09:06:05.978Z,8.09
2022-10-06T09:11:04.360Z,8.13
2022-10-06T09:16:21.387Z,8.13
2022-10-06T09:21:58.595Z,8.42
2022-10-06T09:26:54.289Z,8.42
2022-10-06T09:32:10.349Z,8.29
2022-10-06T09:37:27.867Z,8.29
2022-10-06T09:42:43.891Z,8.25
2022-10-06T09:48:00.356Z,8.25
2022-10-06T09:52:27.757Z,8.47
2022-10-06T09:56:55.744Z,8.47
2022-10-06T10:02:12.569Z,8.28
2022-10-06T10:07:29.885Z,8.28
2022-10-06T10:12:45.966Z,8.37
2022-10-06T10:18:03.494Z,8.37
2022-10-06T10:23:20.388Z,8.01
2022-10-06T10:27:48.600Z,8.01
2022-10-06T10:32:21.978Z,7.94
2022-10-06T10:37:31.090Z,7.94
2022-10-06T10:42:39.666Z,8.3
2022-10-06T10:47:49.352Z,8.3
2022-10-06T10:52:59.086Z,8.26
2022-10-06T10:58:08.868Z,8.26
2022-10-06T11:03:18.585Z,8.1
2022-10-06T11:08:29.003Z,8.1
2022-10-06T11:13:38.781Z,7.98
2022-10-06T11:18:29.320Z,7.98
2022-10-06T11:23:37.795Z,7.96
2022-10-06T11:28:47.561Z,7.96
2022-10-06T11:33:57.328Z,7.85
2022-10-06T11:39:06.715Z,7.85
2022-10-06T11:44:14.929Z,8.05
2022-10-06T11:49:36.615Z,8.05
2022-10-06T11:54:52.836Z,8.02
2022-10-06T12:00:10.437Z,8.02
2022-10-06T12:05:56.982Z,7.91
2022-10-06T12:10:42.601Z,7.91
2022-10-06T12:26:36.365Z,7.96
2022-10-06T12:37:10.433Z,8.39
2022-10-06T12:42:27.240Z,7.94
2022-10-06T13:02:01.376Z,8.15
2022-10-06T13:43:14.407Z,7.92
2022-10-06T13:48:29.901Z,7.92
2022-10-06T13:52:59.749Z,8.1
2022-10-06T13:58:09.796Z,8.1
2022-10-06T14:03:17.950Z,7.92
2022-10-06T14:08:27.071Z,7.92
2022-10-06T14:13:36.195Z,7.91
2022-10-06T14:18:45.879Z,7.91
2022-10-06T14:23:54.435Z,8.11
2022-10-06T14:29:04.200Z,8.11
2022-10-06T14:34:12.715Z,7.84
2022-10-06T14:39:21.167Z,7.84
2022-10-06T14:44:29.626Z,7.94
2022-10-06T14:49:40.038Z,7.94
2022-10-06T14:54:49.833Z,7.86
2022-10-06T15:00:02.565Z,7.86
2022-10-06T15:05:09.315Z,7.85
2022-10-06T15:10:19.081Z,7.85
2022-10-06T15:15:29.488Z,7.63
2022-10-06T15:20:39.218Z,7.63
2022-10-06T15:25:48.999Z,8.02
2022-10-06T15:30:58.618Z,7.82
2022-10-06T15:36:07.232Z,7.82
2022-10-06T15:41:29.658Z,7.88
2022-10-06T15:46:27.339Z,7.88
2022-10-06T15:52:00.701Z,7.81
2022-10-06T15:57:20.526Z,7.81
2022-10-06T16:01:56.841Z,7.8
2022-10-06T16:07:47.256Z,7.8
2022-10-06T16:13:02.170Z,7.63
2022-10-06T16:18:18.973Z,7.63
2022-10-06T16:28:49.371Z,7.6
2022-10-06T16:39:21.012Z,7.48
2022-10-06T16:49:52.172Z,7.43
2022-10-06T17:00:23.160Z,7.38
2022-10-06T17:05:39.255Z,7.5
2022-10-06T17:10:55.421Z,7.5
2022-10-06T17:16:11.615Z,7.36
2022-10-06T17:20:37.102Z,7.36
2022-10-06T17:25:02.614Z,7.24
2022-10-06T17:30:17.529Z,7.24
2022-10-06T17:35:31.737Z,7.78
2022-10-06T17:40:47.932Z,7.78
2022-10-06T17:46:04.102Z,7.7
2022-10-06T17:51:20.246Z,7.7
2022-10-06T17:56:35.129Z,7.75
2022-10-06T18:01:49.355Z,7.75
2022-10-06T18:07:05.504Z,6.99
2022-10-06T18:11:31.020Z,6.99
2022-10-06T18:16:01.245Z,7.06
2022-10-06T18:21:09.309Z,7.06
2022-10-06T18:26:18.435Z,7.08
2022-10-06T18:31:27.330Z,7.08
2022-10-06T18:36:37.315Z,6.61
2022-10-06T18:41:46.431Z,6.96
2022-10-06T18:46:56.200Z,6.96
2022-10-06T18:52:04.686Z,7.52
2022-10-06T18:57:13.149Z,7.52
2022-10-06T19:02:23.396Z,7.11
2022-10-06T19:07:32.059Z,7.11
2022-10-06T19:12:42.445Z,7.07
2022-10-06T19:17:52.195Z,7.07
2022-10-06T19:23:30.759Z,7.13
2022-10-06T19:28:39.721Z,7.13
2022-10-06T19:33:48.411Z,7.46
2022-10-06T19:38:58.115Z,7.46
2022-10-06T19:44:06.642Z,7.45
2022-10-06T19:49:15.097Z,7.45
2022-10-06T19:54:24.260Z,7.56
2022-10-06T19:59:33.327Z,7.56
2022-10-06T20:04:41.860Z,7.46
2022-10-06T20:09:51.041Z,7.46
2022-10-06T20:15:02.914Z,7.63
2022-10-06T20:20:19.241Z,7.63
2022-10-06T20:25:36.691Z,7.37
2022-10-06T20:30:53.017Z,7.37
2022-10-06T20:36:10.531Z,7.73
2022-10-06T20:41:27.736Z,7.73
2022-10-06T20:46:45.003Z,7.55
2022-10-06T20:52:01.962Z,7.55
2022-10-06T20:57:18.059Z,7.3
2022-10-06T21:02:33.571Z,7.3
2022-10-06T21:07:49.632Z,7.65
2022-10-06T21:12:17.228Z,7.65
2022-10-06T21:16:50.748Z,7.9
2022-10-06T21:21:58.570Z,7.9
2022-10-06T21:27:07.060Z,7.8
2022-10-06T21:32:15.569Z,7.65
2022-10-06T21:37:30.154Z,7.65
2022-10-06T21:42:45.049Z,8.06
2022-10-06T21:48:00.615Z,8.06
2022-10-06T21:53:16.752Z,7.81
2022-10-06T21:58:33.533Z,7.81
2022-10-06T22:03:11.446Z,7.56
2022-10-06T22:08:20.664Z,7.56
2022-10-06T22:13:31.058Z,7.69
2022-10-06T22:18:40.847Z,7.69
2022-10-06T22:23:50.567Z,7.7
2022-10-06T22:28:59.085Z,7.7
2022-10-06T22:34:08.182Z,7.25
2022-10-06T22:39:17.294Z,7.25
2022-10-06T22:44:28.334Z,7.8
2022-10-06T22:49:38.756Z,7.8
2022-10-06T22:54:47.846Z,7.89
2022-10-06T22:59:57.676Z,7.89
2022-10-06T23:05:07.372Z,7.71
2022-10-06T23:10:16.503Z,7.71
2022-10-06T23:15:26.788Z,7.92
2022-10-06T23:20:43.618Z,7.92
2022-10-06T23:25:59.721Z,7.92
2022-10-06T23:31:15.961Z,7.92
2022-10-06T23:36:30.151Z,7.81
2022-10-06T23:41:45.024Z,7.81
2022-10-06T23:46:59.947Z,8.02
2022-10-06T23:52:16.044Z,8.02
